createdAt,value
2022-11-22T00:00:10.835Z,4.80
2022-11-22T00:02:56.818Z,4.70
2022-11-22T00:05:42.790Z,4.70
2022-11-22T00:08:28.885Z,4.70
2022-11-22T00:11:14.824Z,4.70
2022-11-22T00:14:00.674Z,4.60
2022-11-22T00:16:46.657Z,4.70
2022-11-22T00:19:32.651Z,4.70
2022-11-22T00:22:18.618Z,4.70
2022-11-22T00:25:05.125Z,4.70
2022-11-22T00:27:51.032Z,4.80
2022-11-22T00:30:37.303Z,4.80
2022-11-22T00:33:23.375Z,4.80
2022-11-22T00:36:09.265Z,4.80
2022-11-22T00:38:55.379Z,4.90
2022-11-22T00:41:41.249Z,4.90
2022-11-22T00:44:27.422Z,5.00
2022-11-22T00:47:13.523Z,5.00
2022-11-22T00:49:59.914Z,5.00
2022-11-22T00:52:46.040Z,4.80
2022-11-22T00:55:32.029Z,4.60
2022-11-22T00:58:18.176Z,4.60
2022-11-22T01:01:04.281Z,4.50
2022-11-22T01:03:50.170Z,4.40
2022-11-22T01:06:36.251Z,4.30
2022-11-22T01:09:24.084Z,4.20
2022-11-22T01:12:09.976Z,4.20
2022-11-22T01:14:56.078Z,4.20
2022-11-22T01:17:43.035Z,4.20
2022-11-22T01:20:30.841Z,4.30
2022-11-22T01:23:17.189Z,4.30
2022-11-22T01:26:03.590Z,4.40
2022-11-22T01:28:49.582Z,4.70
2022-11-22T01:31:35.674Z,4.60
2022-11-22T01:34:21.720Z,4.90
2022-11-22T01:37:07.821Z,4.90
2022-11-22T01:39:53.756Z,5.00
2022-11-22T01:42:46.020Z,5.10
2022-11-22T01:45:32.180Z,5.30
2022-11-22T01:48:40.026Z,5.30
2022-11-22T01:51:49.110Z,5.30
2022-11-22T01:54:40.784Z,5.20
2022-11-22T01:57:31.497Z,5.30
2022-11-22T02:00:18.148Z,5.30
2022-11-22T02:03:09.613Z,5.30
2022-11-22T02:05:56.885Z,5.30
2022-11-22T02:08:48.596Z,5.30
2022-11-22T02:11:38.089Z,5.40
2022-11-22T02:14:28.040Z,5.50
2022-11-22T02:17:14.127Z,5.50
2022-11-22T02:20:00.345Z,5.50
2022-11-22T02:23:06.913Z,5.60
2022-11-22T02:25:58.290Z,5.60
2022-11-22T02:28:44.500Z,5.60
2022-11-22T02:31:44.038Z,5.60
2022-11-22T02:34:30.257Z,5.80
2022-11-22T02:37:24.052Z,5.70
2022-11-22T02:40:14.604Z,5.70
2022-11-22T02:43:04.588Z,5.70
2022-11-22T02:45:50.713Z,5.80
2022-11-22T02:48:44.199Z,5.80
2022-11-22T02:51:30.409Z,5.70
2022-11-22T02:54:17.268Z,5.70
2022-11-22T02:57:03.748Z,5.70
2022-11-22T02:59:49.950Z,5.80
2022-11-22T03:02:35.744Z,5.80
2022-11-22T03:05:21.778Z,5.80
2022-11-22T03:08:07.813Z,5.80
2022-11-22T03:10:56.593Z,5.90
2022-11-22T03:13:42.634Z,6.00
2022-11-22T03:16:30.834Z,6.00
2022-11-22T03:19:17.212Z,6.10
2022-11-22T03:22:03.057Z,6.10
2022-11-22T03:24:49.193Z,6.20
2022-11-22T03:27:35.236Z,6.20
2022-11-22T03:30:21.544Z,6.20
2022-11-22T03:33:07.971Z,6.20
2022-11-22T03:35:58.261Z,6.20
2022-11-22T03:38:44.374Z,6.30
2022-11-22T03:41:30.545Z,6.30
2022-11-22T03:44:16.428Z,6.30
2022-11-22T03:47:02.472Z,6.30
2022-11-22T03:49:48.715Z,6.30
2022-11-22T03:52:34.762Z,6.20
2022-11-22T03:55:20.772Z,6.20
2022-11-22T03:58:07.305Z,6.20
2022-11-22T04:00:53.254Z,6.10
2022-11-22T04:03:39.376Z,6.10
2022-11-22T04:06:25.848Z,6.10
2022-11-22T04:09:11.942Z,6.10
2022-11-22T04:11:58.146Z,6.00
2022-11-22T04:15:02.581Z,6.10
2022-11-22T04:17:48.641Z,6.00
2022-11-22T04:20:53.160Z,6.10
2022-11-22T04:23:39.126Z,6.10
2022-11-22T04:26:24.948Z,6.10
2022-11-22T04:29:10.954Z,6.10
2022-11-22T04:32:15.414Z,6.10
2022-11-22T04:35:01.250Z,6.10
2022-11-22T04:37:51.835Z,6.20
2022-11-22T04:40:38.936Z,6.20
2022-11-22T04:43:46.654Z,6.20
2022-11-22T04:46:32.589Z,6.20
2022-11-22T04:49:18.875Z,6.20
2022-11-22T04:52:24.239Z,6.20
2022-11-22T04:55:10.247Z,6.30
2022-11-22T04:57:59.879Z,6.30
2022-11-22T05:00:47.424Z,6.30
2022-11-22T05:03:34.018Z,6.30
2022-11-22T05:06:20.338Z,6.30
2022-11-22T05:09:07.012Z,6.30
2022-11-22T05:11:53.804Z,6.30
2022-11-22T05:14:39.776Z,6.30
2022-11-22T05:17:25.831Z,6.40
2022-11-22T05:20:12.176Z,6.30
2022-11-22T05:23:16.535Z,6.40
2022-11-22T05:26:02.588Z,6.40
2022-11-22T05:28:48.676Z,6.50
2022-11-22T05:31:36.660Z,6.50
2022-11-22T05:34:22.893Z,6.50
2022-11-22T05:37:08.859Z,6.60
2022-11-22T05:39:55.072Z,6.60
2022-11-22T05:42:41.007Z,6.60
2022-11-22T05:45:27.548Z,6.60
2022-11-22T05:48:13.348Z,6.60
2022-11-22T05:51:03.370Z,6.50
2022-11-22T05:53:49.361Z,6.50
2022-11-22T05:56:35.468Z,6.60
2022-11-22T05:59:21.747Z,6.60
2022-11-22T06:02:07.846Z,6.60
2022-11-22T06:04:53.757Z,6.60
2022-11-22T06:07:40.020Z,6.60
2022-11-22T06:10:26.981Z,6.60
2022-11-22T06:13:13.110Z,6.50
2022-11-22T06:16:03.555Z,6.50
2022-11-22T06:18:50.270Z,6.50
2022-11-22T06:21:36.310Z,6.50
2022-11-22T06:24:22.278Z,6.50
2022-11-22T06:27:08.632Z,6.50
2022-11-22T06:29:54.537Z,6.40
2022-11-22T06:32:40.529Z,6.40
2022-11-22T06:35:26.683Z,6.40
2022-11-22T06:38:12.394Z,6.50
2022-11-22T06:41:07.741Z,6.40
2022-11-22T06:43:58.599Z,6.40
2022-11-22T06:46:44.762Z,6.40
2022-11-22T06:49:31.088Z,6.40
2022-11-22T06:52:17.854Z,6.40
2022-11-22T06:55:07.982Z,6.40
2022-11-22T06:57:54.527Z,6.40
2022-11-22T07:00:40.570Z,6.40
2022-11-22T07:03:26.422Z,6.40
2022-11-22T07:06:14.040Z,6.50
2022-11-22T07:09:01.611Z,6.50
2022-11-22T07:11:47.509Z,6.50
2022-11-22T07:14:33.608Z,6.50
2022-11-22T07:17:19.964Z,6.50
2022-11-22T07:20:06.561Z,6.50
2022-11-22T07:22:52.859Z,6.60
2022-11-22T07:25:39.055Z,6.60
2022-11-22T07:28:25.772Z,6.60
2022-11-22T07:31:15.074Z,6.60
2022-11-22T07:34:01.512Z,6.60
2022-11-22T07:36:47.713Z,6.60
2022-11-22T07:39:33.608Z,6.60
2022-11-22T07:42:25.258Z,6.60
2022-11-22T07:45:13.071Z,6.60
2022-11-22T07:48:02.565Z,6.60
2022-11-22T07:50:48.424Z,6.60
2022-11-22T07:53:35.845Z,6.60
2022-11-22T07:56:22.209Z,6.50
2022-11-22T07:59:08.356Z,6.50
2022-11-22T08:01:54.574Z,6.50
2022-11-22T08:04:41.038Z,6.50
2022-11-22T08:07:27.248Z,6.50
2022-11-22T08:10:13.405Z,6.60
2022-11-22T08:13:00.409Z,6.60
2022-11-22T08:15:48.379Z,6.60
2022-11-22T08:18:36.357Z,6.60
2022-11-22T08:21:22.732Z,6.60
2022-11-22T08:24:08.777Z,6.60
2022-11-22T08:26:54.781Z,6.70
2022-11-22T08:29:40.865Z,6.70
2022-11-22T08:32:27.055Z,6.70
2022-11-22T08:35:13.048Z,6.60
2022-11-22T08:37:58.990Z,6.60
2022-11-22T08:40:45.312Z,6.60
2022-11-22T08:43:32.634Z,6.60
2022-11-22T08:46:19.440Z,6.70
2022-11-22T08:49:06.509Z,6.80
2022-11-22T08:51:52.849Z,6.80
2022-11-22T08:54:38.821Z,6.70
2022-11-22T08:57:25.080Z,6.80
2022-11-22T09:00:11.710Z,6.80
2022-11-22T09:02:59.093Z,6.70
2022-11-22T09:09:02.873Z,6.70
2022-11-22T09:11:57.872Z,6.80
2022-11-22T09:14:43.731Z,6.90
2022-11-22T09:17:29.637Z,7.00
2022-11-22T09:20:16.256Z,7.00
2022-11-22T09:23:04.093Z,7.00
2022-11-22T09:25:59.020Z,7.10
2022-11-22T09:28:46.036Z,7.10
2022-11-22T09:31:32.625Z,7.10
2022-11-22T09:34:19.303Z,7.10
2022-11-22T09:37:05.547Z,7.20
2022-11-22T09:39:51.850Z,7.20
2022-11-22T09:43:27.353Z,7.20
2022-11-22T09:46:32.707Z,7.20
2022-11-22T09:49:25.002Z,7.20
2022-11-22T09:52:20.517Z,7.10
2022-11-22T09:55:17.712Z,7.10
2022-11-22T09:58:39.887Z,7.10
2022-11-22T10:01:48.655Z,7.10
2022-11-22T10:04:40.076Z,7.20
2022-11-22T10:07:50.039Z,7.20
2022-11-22T10:10:42.849Z,7.20
2022-11-22T10:13:44.277Z,7.20
2022-11-22T10:16:40.996Z,7.20
2022-11-22T10:19:37.674Z,7.20
2022-11-22T10:22:24.718Z,7.30
2022-11-22T10:25:27.668Z,7.30
2022-11-22T10:28:19.353Z,7.40
2022-11-22T10:31:09.557Z,7.40
2022-11-22T10:34:10.413Z,7.40
2022-11-22T10:37:18.481Z,7.50
2022-11-22T10:40:27.681Z,7.40
2022-11-22T10:43:31.724Z,7.30
2022-11-22T10:46:33.155Z,7.40
2022-11-22T10:49:32.811Z,7.30
2022-11-22T10:52:26.456Z,7.30
2022-11-22T10:55:23.329Z,7.40
2022-11-22T10:58:34.322Z,7.40
2022-11-22T11:01:29.479Z,7.50
2022-11-22T11:04:17.308Z,7.50
2022-11-22T11:07:13.362Z,7.50
2022-11-22T11:10:14.723Z,7.60
2022-11-22T11:13:15.134Z,7.60
2022-11-22T11:16:06.660Z,7.60
2022-11-22T11:18:57.659Z,7.50
2022-11-22T11:21:43.953Z,7.50
2022-11-22T11:24:31.451Z,7.50
2022-11-22T11:27:20.869Z,7.50
2022-11-22T11:30:12.801Z,7.60
2022-11-22T11:32:58.889Z,7.60
2022-11-22T11:35:46.876Z,7.60
2022-11-22T11:38:42.033Z,7.60
2022-11-22T11:41:32.282Z,7.60
2022-11-22T11:44:36.379Z,7.60
2022-11-22T11:47:33.961Z,7.60
2022-11-22T11:50:26.227Z,7.50
2022-11-22T11:53:25.643Z,7.40
2022-11-22T11:56:28.661Z,7.20
2022-11-22T11:59:18.049Z,7.00
2022-11-22T12:02:09.818Z,6.90
2022-11-22T12:05:21.641Z,6.90
2022-11-22T12:08:31.866Z,6.90
2022-11-22T12:11:30.924Z,7.00
2022-11-22T12:14:20.873Z,7.00
2022-11-22T12:17:17.249Z,7.00
2022-11-22T12:20:14.569Z,7.10
2022-11-22T12:23:01.534Z,7.20
2022-11-22T12:25:50.158Z,7.20
2022-11-22T12:28:37.730Z,7.20
2022-11-22T12:31:53.279Z,7.20
2022-11-22T12:35:02.142Z,7.00
2022-11-22T12:37:57.256Z,6.90
2022-11-22T12:40:46.678Z,6.80
2022-11-22T12:43:57.223Z,6.80
2022-11-22T12:47:05.840Z,6.80
2022-11-22T12:49:56.744Z,6.80
2022-11-22T12:52:51.882Z,6.80
2022-11-22T12:55:51.852Z,6.70
2022-11-22T12:58:41.493Z,6.80
2022-11-22T13:01:43.688Z,6.90
2022-11-22T13:04:57.531Z,6.80
2022-11-22T13:08:03.841Z,6.70
2022-11-22T13:11:08.824Z,6.70
2022-11-22T13:14:15.196Z,6.70
2022-11-22T13:17:10.892Z,6.70
2022-11-22T13:20:06.536Z,6.70
2022-11-22T13:23:33.360Z,6.70
2022-11-22T13:26:30.375Z,6.80
2022-11-22T13:29:23.962Z,6.80
2022-11-22T13:32:13.253Z,6.90
2022-11-22T13:35:11.479Z,6.90
2022-11-22T13:38:02.590Z,7.00
2022-11-22T13:40:53.927Z,7.10
2022-11-22T13:43:56.820Z,7.10
2022-11-22T13:47:04.860Z,7.00
2022-11-22T13:49:53.887Z,7.10
2022-11-22T13:52:53.580Z,7.10
2022-11-22T13:55:42.519Z,7.10
2022-11-22T13:58:49.062Z,7.10
2022-11-22T14:01:36.718Z,7.10
2022-11-22T14:04:26.881Z,7.10
2022-11-22T14:07:29.649Z,7.10
2022-11-22T14:10:30.097Z,7.00
2022-11-22T14:13:34.732Z,7.00
2022-11-22T14:16:47.954Z,7.00
2022-11-22T14:20:01.016Z,6.90
2022-11-22T14:23:02.230Z,6.90
2022-11-22T14:26:04.350Z,7.00
2022-11-22T14:29:09.321Z,7.00
2022-11-22T14:32:04.986Z,7.00
2022-11-22T14:35:06.203Z,7.00
2022-11-22T14:38:07.126Z,7.00
2022-11-22T14:41:13.294Z,6.90
2022-11-22T14:44:14.609Z,6.90
2022-11-22T14:47:12.566Z,6.90
2022-11-22T14:49:58.809Z,6.90
2022-11-22T14:52:48.075Z,6.80
2022-11-22T14:55:35.165Z,6.80
2022-11-22T14:58:28.784Z,6.80
2022-11-22T15:01:33.661Z,6.70
2022-11-22T15:09:12.948Z,6.70
2022-11-22T15:09:21.645Z,6.60
2022-11-22T15:11:25.425Z,6.60
2022-11-22T15:14:49.359Z,6.60
2022-11-22T15:58:47.852Z,6.60
2022-11-22T16:01:40.166Z,6.60
2022-11-22T16:04:33.243Z,6.60
2022-11-22T16:07:34.256Z,6.60
2022-11-22T16:10:50.491Z,6.60
2022-11-22T16:13:36.617Z,6.60
2022-11-22T16:16:28.255Z,6.60
2022-11-22T16:19:25.353Z,6.60
2022-11-22T16:22:27.609Z,6.60
2022-11-22T16:25:33.422Z,6.50
2022-11-22T16:28:32.379Z,6.50
2022-11-22T16:31:25.930Z,6.50
2022-11-22T16:34:15.789Z,6.50
2022-11-22T16:37:02.193Z,6.50
2022-11-22T16:39:48.435Z,6.40
2022-11-22T16:42:35.444Z,6.50
2022-11-22T16:45:22.785Z,6.40
2022-11-22T16:48:31.239Z,6.50
2022-11-22T16:51:28.479Z,6.50
2022-11-22T16:54:17.493Z,6.40
2022-11-22T16:57:09.078Z,6.50
2022-11-22T16:59:55.223Z,6.40
2022-11-22T17:02:41.893Z,6.40
2022-11-22T17:05:27.924Z,6.50
2022-11-22T17:08:19.016Z,6.40
2022-11-22T17:11:12.532Z,6.40
2022-11-22T17:14:17.567Z,6.40
2022-11-22T17:17:29.394Z,6.40
2022-11-22T17:20:21.738Z,6.40
2022-11-22T17:23:18.413Z,6.30
2022-11-22T17:26:05.693Z,6.30
2022-11-22T17:28:51.821Z,6.20
2022-11-22T17:31:38.092Z,6.20
2022-11-22T17:34:24.320Z,6.20
2022-11-22T17:37:14.347Z,6.20
2022-11-22T17:40:00.824Z,6.10
2022-11-22T17:42:46.953Z,6.10
2022-11-22T17:45:34.149Z,6.10
2022-11-22T17:48:21.361Z,6.10
2022-11-22T17:51:09.336Z,6.10
2022-11-22T17:53:58.235Z,6.10
2022-11-22T17:56:44.520Z,6.10
2022-11-22T17:59:31.231Z,6.20
2022-11-22T18:02:17.582Z,6.20
2022-11-22T18:05:08.282Z,6.30
2022-11-22T18:07:54.957Z,6.30
2022-11-22T18:10:41.070Z,6.30
2022-11-22T18:13:28.857Z,6.30
2022-11-22T18:16:18.562Z,6.30
2022-11-22T18:19:05.176Z,6.30
2022-11-22T18:21:51.330Z,6.30
2022-11-22T18:24:37.105Z,6.20
2022-11-22T18:27:23.254Z,6.20
2022-11-22T18:30:10.045Z,6.20
2022-11-22T18:32:56.222Z,6.10
2022-11-22T18:35:42.383Z,6.10
2022-11-22T18:38:28.857Z,6.10
2022-11-22T18:41:16.706Z,6.20
2022-11-22T18:44:07.015Z,6.20
2022-11-22T18:46:55.202Z,6.20
2022-11-22T18:49:41.541Z,6.20
2022-11-22T18:52:27.797Z,6.20
2022-11-22T18:55:17.591Z,6.30
2022-11-22T18:58:04.016Z,6.20
2022-11-22T19:00:51.278Z,6.20
2022-11-22T19:03:38.303Z,6.20
2022-11-22T19:06:24.601Z,6.20
2022-11-22T19:09:11.393Z,6.20
2022-11-22T19:11:58.675Z,6.20
2022-11-22T19:14:45.095Z,6.20
2022-11-22T19:17:30.986Z,6.20
2022-11-22T19:20:47.291Z,6.20
2022-11-22T19:23:23.083Z,6.20
2022-11-22T19:26:14.721Z,6.20
2022-11-22T19:29:02.671Z,6.20
2022-11-22T19:31:48.970Z,6.30
2022-11-22T19:34:35.197Z,6.30
2022-11-22T19:37:21.298Z,6.30
2022-11-22T19:40:07.833Z,6.20
2022-11-22T19:42:54.056Z,6.20
2022-11-22T19:45:40.177Z,6.10
2022-11-22T19:48:26.429Z,6.10
2022-11-22T19:51:15.139Z,6.00
2022-11-22T19:54:02.836Z,6.00
2022-11-22T19:56:49.113Z,5.90
2022-11-22T19:59:37.031Z,5.90
2022-11-22T20:02:23.523Z,5.80
2022-11-22T20:05:09.982Z,5.80
2022-11-22T20:07:55.972Z,5.80
2022-11-22T20:10:42.149Z,5.80
2022-11-22T20:13:28.134Z,5.70
2022-11-22T20:16:21.155Z,5.70
2022-11-22T20:19:09.597Z,5.70
2022-11-22T20:21:55.589Z,5.70
2022-11-22T20:24:41.643Z,5.60
2022-11-22T20:27:29.027Z,5.50
2022-11-22T20:30:15.809Z,5.50
2022-11-22T20:33:02.723Z,5.50
2022-11-22T20:35:48.838Z,5.50
2022-11-22T20:38:47.704Z,5.60
2022-11-22T20:41:33.484Z,5.60
2022-11-22T20:44:24.480Z,5.60
2022-11-22T20:47:11.697Z,5.70
2022-11-22T20:49:57.764Z,5.60
2022-11-22T20:52:43.762Z,5.60
2022-11-22T20:55:29.808Z,5.60
2022-11-22T20:58:15.664Z,5.60
2022-11-22T21:01:06.651Z,5.60
2022-11-22T21:03:54.460Z,5.60
2022-11-22T21:06:40.910Z,5.60
2022-11-22T21:09:27.756Z,5.60
2022-11-22T21:12:14.006Z,5.50
2022-11-22T21:14:59.950Z,5.60
2022-11-22T21:18:17.261Z,5.60
2022-11-22T21:20:52.890Z,5.60
2022-11-22T21:23:40.377Z,5.60
2022-11-22T21:26:27.284Z,5.50
2022-11-22T21:29:16.677Z,5.50
2022-11-22T21:32:02.848Z,5.50
2022-11-22T21:34:49.011Z,5.50
2022-11-22T21:37:34.985Z,5.60
2022-11-22T21:40:21.035Z,5.50
2022-11-22T21:43:06.797Z,5.50
2022-11-22T21:45:53.809Z,5.40
2022-11-22T21:48:39.923Z,5.40
2022-11-22T21:51:26.489Z,5.30
2022-11-22T21:54:12.731Z,5.30
2022-11-22T21:57:02.768Z,5.30
2022-11-22T21:59:49.197Z,5.20
2022-11-22T22:02:35.566Z,5.10
2022-11-22T22:05:21.613Z,5.10
2022-11-22T22:08:07.754Z,5.10
2022-11-22T22:10:53.796Z,5.00
2022-11-22T22:13:39.944Z,5.20
2022-11-22T22:16:26.421Z,5.10
2022-11-22T22:19:13.052Z,5.10
2022-11-22T22:21:59.110Z,5.00
2022-11-22T22:24:45.132Z,5.10
2022-11-22T22:27:32.854Z,5.20
2022-11-22T22:30:19.077Z,5.30
2022-11-22T22:33:05.071Z,5.30
2022-11-22T22:35:51.000Z,5.40
2022-11-22T22:38:38.305Z,5.40
2022-11-22T22:41:24.558Z,5.50
2022-11-22T22:44:10.719Z,5.50
2022-11-22T22:46:56.757Z,5.60
2022-11-22T22:49:42.737Z,5.60
2022-11-22T22:52:28.904Z,5.70
2022-11-22T22:55:14.770Z,5.70
2022-11-22T22:58:00.969Z,5.80
2022-11-22T23:00:47.133Z,5.80
2022-11-22T23:03:33.255Z,6.00
2022-11-22T23:06:20.681Z,6.00
2022-11-22T23:09:09.489Z,6.10
2022-11-22T23:12:10.544Z,6.10
2022-11-22T23:14:56.981Z,6.00
2022-11-22T23:17:43.499Z,6.00
2022-11-22T23:20:29.463Z,6.10
2022-11-22T23:23:15.545Z,6.00
2022-11-22T23:26:07.716Z,6.00
2022-11-22T23:28:53.830Z,5.90
2022-11-22T23:31:39.768Z,5.90
2022-11-22T23:34:25.695Z,5.80
2022-11-22T23:37:11.759Z,5.90
2022-11-22T23:39:57.694Z,5.90
2022-11-22T23:42:43.653Z,5.80
2022-11-22T23:45:29.662Z,5.90
2022-11-22T23:48:15.838Z,5.80
2022-11-22T23:51:05.142Z,5.80
2022-11-22T23:53:58.556Z,5.90
2022-11-22T23:56:44.737Z,6.00
2022-11-22T23:59:31.374Z,6.00
